Decoded Metar for KAID (ANDERSON MUNICIP in IN, USA) (IATA:AID) | Meteo·Mobile Aviation Weather
aviador You're here:

KAID Decoded Metar

ANDERSON MUNICIP in IN, USA
Report Time2019-04-20 23:55:00
UTC Time2019-04-21 00:11:10
Flight Rules vfr VFR
WindCalm
Visibility9999 m
Phenomena:Light Drizzle
Clouds:Broken 035 Hf
Overcast 048 Hf
Expected CloudBase > 400 ft AGL from Temp-Dew spread
Ceiling3,500 ft
Temp05°C (ISA -8)
Dew Point04°C (93% RH)
AAT3.7°C
QNH1009 hPa
Density Alt184 ft
Elevation919 ft
Report Wrong Elevation
Raw Report
KAID 202355Z AUTO 00000KT 10SM -DZ BKN035 OVC048 05/04 A2981 RMK
AO2 60010 T00500035 10059 20049=

Extra information for KAID:More info

Metar Taf Metar & Taf Last 4 Metars F.Rules Stats Wind Profile Meteogram Temp Stats Airport Information Weather charts Add Link Nearby VenuesMetar ALERT Operation Metar Decoded Social comments

AIRNAV info for KAID